createdAt,value
2023-02-08T00:00:24.608Z,20.07
2023-02-08T00:02:53.326Z,19.87
2023-02-08T00:05:21.633Z,20.87
2023-02-08T00:07:49.571Z,22.17
2023-02-08T00:10:19.139Z,21.27
2023-02-08T00:12:47.278Z,20.43
2023-02-08T00:15:15.272Z,21.93
2023-02-08T00:17:43.304Z,21.87
2023-02-08T00:23:12.035Z,20.10
2023-02-08T00:25:42.074Z,21.23
2023-02-08T00:28:13.883Z,22.57
2023-02-08T00:30:43.006Z,19.97
2023-02-08T00:33:11.223Z,20.40
2023-02-08T00:35:38.956Z,20.20
2023-02-08T00:38:06.606Z,21.80
2023-02-08T00:40:34.318Z,17.73
2023-02-08T00:43:03.768Z,19.90
2023-02-08T00:45:31.368Z,18.93
2023-02-08T00:47:58.983Z,19.73
2023-02-08T00:50:26.884Z,21.50
2023-02-08T00:52:54.498Z,19.10
2023-02-08T00:55:22.239Z,21.30
2023-02-08T00:57:49.887Z,19.40
2023-02-08T01:00:19.599Z,20.03
2023-02-08T01:02:47.230Z,19.27
2023-02-08T01:05:14.926Z,19.77
2023-02-08T01:07:42.633Z,19.50
2023-02-08T01:10:12.590Z,19.80
2023-02-08T01:12:41.775Z,19.80
2023-02-08T01:15:10.338Z,19.53
2023-02-08T01:17:40.897Z,18.90
2023-02-08T01:20:11.047Z,18.50
2023-02-08T01:22:38.723Z,18.47
2023-02-08T01:25:06.801Z,19.13
2023-02-08T01:27:34.603Z,19.50
2023-02-08T01:30:02.367Z,19.60
2023-02-08T01:32:30.069Z,19.07
2023-02-08T01:34:59.100Z,19.53
2023-02-08T01:37:26.735Z,20.27
2023-02-08T01:39:54.450Z,20.60
2023-02-08T01:42:22.653Z,18.50
2023-02-08T01:45:27.770Z,20.20
2023-02-08T01:48:00.474Z,18.80
2023-02-08T01:50:32.853Z,19.20
2023-02-08T01:53:02.474Z,19.07
2023-02-08T01:55:33.309Z,20.10
2023-02-08T01:58:03.173Z,18.87
2023-02-08T02:00:32.517Z,19.17
2023-02-08T02:03:00.430Z,18.70
2023-02-08T02:05:35.344Z,19.47
2023-02-08T02:08:03.417Z,18.40
2023-02-08T02:10:32.972Z,21.40
2023-02-08T02:13:05.708Z,19.80
2023-02-08T02:15:33.742Z,19.33
2023-02-08T02:18:01.781Z,19.83
2023-02-08T02:20:43.460Z,20.63
2023-02-08T02:23:33.427Z,21.13
2023-02-08T02:26:22.453Z,21.17
2023-02-08T02:29:35.628Z,19.70
2023-02-08T02:32:17.332Z,20.13
2023-02-08T02:34:47.347Z,19.00
2023-02-08T02:37:26.490Z,20.37
2023-02-08T02:40:01.936Z,21.00
2023-02-08T02:42:55.890Z,19.33
2023-02-08T02:45:29.248Z,18.00
2023-02-08T02:48:03.718Z,19.93
2023-02-08T02:50:33.910Z,21.40
2023-02-08T02:53:04.894Z,20.73
2023-02-08T02:55:35.944Z,20.87
2023-02-08T02:58:03.990Z,21.73
2023-02-08T03:00:32.229Z,19.57
2023-02-08T03:03:01.318Z,20.13
2023-02-08T03:05:30.234Z,20.70
2023-02-08T03:08:17.316Z,19.90
2023-02-08T03:10:55.883Z,18.57
2023-02-08T03:13:33.934Z,20.43
2023-02-08T03:16:09.542Z,20.40
2023-02-08T03:18:48.995Z,21.60
2023-02-08T03:21:20.431Z,19.93
2023-02-08T03:23:58.428Z,22.87
2023-02-08T03:26:33.140Z,20.10
2023-02-08T03:29:05.856Z,21.13
2023-02-08T03:31:36.527Z,20.53
2023-02-08T03:34:08.118Z,19.83
2023-02-08T03:36:39.605Z,19.50
2023-02-08T03:39:10.375Z,21.47
2023-02-08T03:41:40.421Z,20.53
2023-02-08T03:44:10.823Z,19.07
2023-02-08T03:46:41.337Z,18.57
2023-02-08T03:49:14.801Z,20.30
2023-02-08T03:51:44.577Z,19.83
2023-02-08T03:54:15.235Z,22.13
2023-02-08T03:56:46.253Z,22.43
2023-02-08T03:59:17.318Z,20.47
2023-02-08T04:01:47.378Z,21.53
2023-02-08T04:04:17.873Z,21.73
2023-02-08T04:06:45.568Z,21.20
2023-02-08T04:09:13.381Z,20.87
2023-02-08T04:11:41.236Z,21.97
2023-02-08T04:14:08.842Z,23.07
2023-02-08T04:16:36.598Z,21.20
2023-02-08T04:19:04.413Z,24.03
2023-02-08T04:21:33.436Z,21.27
2023-02-08T04:24:01.135Z,21.30
2023-02-08T04:26:28.844Z,20.30
2023-02-08T04:28:56.512Z,20.00
2023-02-08T04:31:24.426Z,21.00
2023-02-08T04:33:52.300Z,20.60
2023-02-08T04:36:20.200Z,20.30
2023-02-08T04:38:49.253Z,21.70
2023-02-08T04:41:17.870Z,21.57
2023-02-08T04:43:45.891Z,21.53
2023-02-08T04:46:13.654Z,22.47
2023-02-08T04:48:41.431Z,21.93
2023-02-08T04:51:09.106Z,20.63
2023-02-08T04:53:36.836Z,20.17
2023-02-08T04:56:06.376Z,21.37
2023-02-08T04:58:34.118Z,21.73
2023-02-08T05:01:01.809Z,22.73
2023-02-08T05:03:29.547Z,22.60
2023-02-08T05:05:58.504Z,23.20
2023-02-08T05:08:26.635Z,24.20
2023-02-08T05:10:54.274Z,23.07
2023-02-08T05:13:23.282Z,24.63
2023-02-08T05:15:50.930Z,21.93
2023-02-08T05:18:18.579Z,24.00
2023-02-08T05:20:46.401Z,24.10
2023-02-08T05:23:14.014Z,22.00
2023-02-08T05:25:42.043Z,22.27
2023-02-08T05:28:09.775Z,21.50
2023-02-08T05:30:40.408Z,22.40
2023-02-08T05:33:08.225Z,21.60
2023-02-08T05:35:35.953Z,21.10
2023-02-08T05:38:03.603Z,20.70
2023-02-08T05:40:31.423Z,21.83
2023-02-08T05:42:59.375Z,24.73
2023-02-08T05:45:27.046Z,23.47
2023-02-08T05:47:56.305Z,24.00
2023-02-08T05:50:23.919Z,26.37
2023-02-08T05:52:51.693Z,23.70
2023-02-08T05:55:19.538Z,26.00
2023-02-08T05:57:47.213Z,24.67
2023-02-08T06:00:16.224Z,24.00
2023-02-08T06:02:43.854Z,25.47
2023-02-08T06:05:13.089Z,25.33
2023-02-08T06:07:40.960Z,25.23
2023-02-08T06:10:11.259Z,24.50
2023-02-08T06:12:39.571Z,25.77
2023-02-08T06:15:08.169Z,26.40
2023-02-08T06:17:36.198Z,27.87
2023-02-08T06:20:04.365Z,26.17
2023-02-08T06:22:35.107Z,27.47
2023-02-08T06:25:03.099Z,29.13
2023-02-08T06:27:31.421Z,29.27
2023-02-08T06:29:59.719Z,28.83
2023-02-08T06:32:27.910Z,25.83
2023-02-08T06:34:55.952Z,27.43
2023-02-08T06:37:24.003Z,28.60
2023-02-08T06:39:53.227Z,26.13
2023-02-08T06:42:21.203Z,28.80
2023-02-08T06:44:54.977Z,28.70
2023-02-08T06:47:27.196Z,28.43
2023-02-08T06:49:54.930Z,28.73
2023-02-08T06:52:22.927Z,28.50
2023-02-08T06:54:50.570Z,28.40
2023-02-08T06:57:20.001Z,30.37
2023-02-08T06:59:47.552Z,26.93
2023-02-08T07:02:17.343Z,28.20
2023-02-08T07:04:45.682Z,27.80
2023-02-08T07:07:14.082Z,29.20
2023-02-08T07:09:42.210Z,28.83
2023-02-08T07:12:10.320Z,27.60
2023-02-08T07:14:41.510Z,29.20
2023-02-08T07:17:09.453Z,28.80
2023-02-08T07:19:37.239Z,30.60
2023-02-08T07:22:08.293Z,28.33
2023-02-08T07:24:36.906Z,29.63
2023-02-08T07:27:06.192Z,26.90
2023-02-08T07:29:34.640Z,28.30
2023-02-08T07:32:05.809Z,30.83
2023-02-08T07:34:37.655Z,27.47
2023-02-08T07:37:05.527Z,31.70
2023-02-08T07:39:33.562Z,29.00
2023-02-08T07:42:01.441Z,30.77
2023-02-08T07:44:34.625Z,28.70
2023-02-08T07:47:03.826Z,29.27
2023-02-08T07:49:31.872Z,29.47
2023-02-08T07:51:59.583Z,31.23
2023-02-08T07:54:27.362Z,27.70
2023-02-08T07:56:55.126Z,31.20
2023-02-08T07:59:23.182Z,29.27
2023-02-08T08:01:51.009Z,30.70
2023-02-08T08:04:22.095Z,30.10
2023-02-08T08:06:51.482Z,31.33
2023-02-08T08:09:20.327Z,27.40
2023-02-08T08:11:47.988Z,27.77
2023-02-08T08:14:15.720Z,30.10
2023-02-08T08:16:43.815Z,29.53
2023-02-08T08:19:11.830Z,29.73
2023-02-08T08:21:41.332Z,32.00
2023-02-08T08:24:09.542Z,29.67
2023-02-08T08:26:37.419Z,30.50
2023-02-08T08:29:06.400Z,31.60
2023-02-08T08:31:34.420Z,30.10
2023-02-08T08:34:02.122Z,31.30
2023-02-08T08:36:29.797Z,26.90
2023-02-08T08:38:58.901Z,31.70
2023-02-08T08:41:27.428Z,30.60
2023-02-08T08:43:55.584Z,32.57
2023-02-08T08:46:23.337Z,32.73
2023-02-08T08:48:51.726Z,34.67
2023-02-08T08:51:19.598Z,32.77
2023-02-08T08:53:47.265Z,28.10
2023-02-08T08:56:16.291Z,30.60
2023-02-08T08:58:44.489Z,28.97
2023-02-08T09:01:14.089Z,31.10
2023-02-08T09:03:41.987Z,30.23
2023-02-08T09:06:09.714Z,31.27
2023-02-08T09:08:38.024Z,29.97
2023-02-08T09:11:07.381Z,29.90
2023-02-08T09:13:36.492Z,30.37
2023-02-08T09:16:11.390Z,30.23
2023-02-08T09:18:39.170Z,29.60
2023-02-08T09:21:07.716Z,28.60
2023-02-08T09:23:35.552Z,26.83
2023-02-08T09:26:03.920Z,30.40
2023-02-08T09:28:31.801Z,30.10
2023-02-08T09:31:01.744Z,27.27
2023-02-08T09:33:29.781Z,25.80
2023-02-08T09:35:57.478Z,27.07
2023-02-08T09:38:25.245Z,28.00
2023-02-08T09:41:01.164Z,27.07
2023-02-08T09:43:33.033Z,26.47
2023-02-08T09:46:05.433Z,26.87
2023-02-08T09:48:36.237Z,27.60
2023-02-08T09:51:10.244Z,28.53
2023-02-08T09:53:41.878Z,28.37
2023-02-08T09:56:14.152Z,25.90
2023-02-08T09:58:44.545Z,25.17
2023-02-08T10:01:19.622Z,25.93
2023-02-08T10:03:48.196Z,23.97
2023-02-08T10:06:18.178Z,25.87
2023-02-08T10:08:47.543Z,23.57
2023-02-08T10:11:43.380Z,25.50
2023-02-08T10:14:31.987Z,23.60
2023-02-08T10:17:11.103Z,24.57
2023-02-08T10:19:50.465Z,26.03
2023-02-08T10:22:27.152Z,23.87
2023-02-08T10:25:07.723Z,22.17
2023-02-08T10:27:43.583Z,24.03
2023-02-08T10:30:19.522Z,23.07
2023-02-08T10:33:00.964Z,25.80
2023-02-08T10:35:37.186Z,24.17
2023-02-08T10:38:37.230Z,24.63
2023-02-08T10:41:17.640Z,24.27
2023-02-08T10:43:48.550Z,24.13
2023-02-08T10:46:19.692Z,24.63
2023-02-08T10:48:56.355Z,22.93
2023-02-08T10:51:24.230Z,25.73
2023-02-08T10:53:52.207Z,23.67
2023-02-08T10:56:38.206Z,23.93
2023-02-08T10:59:15.140Z,23.30
2023-02-08T11:01:43.401Z,22.77
2023-02-08T11:04:14.322Z,23.40
2023-02-08T11:06:43.389Z,21.60
2023-02-08T11:09:22.700Z,23.33
2023-02-08T11:11:52.870Z,22.23
2023-02-08T11:14:30.427Z,23.90
2023-02-08T11:17:05.836Z,22.50
2023-02-08T11:19:39.363Z,24.97
2023-02-08T11:22:07.657Z,23.50
2023-02-08T11:24:40.179Z,21.97
2023-02-08T11:27:18.429Z,24.57
2023-02-08T11:29:47.009Z,22.83
2023-02-08T11:32:17.993Z,22.57
2023-02-08T11:34:47.402Z,21.67
2023-02-08T11:37:17.295Z,22.60
2023-02-08T11:39:49.750Z,22.40
2023-02-08T11:42:21.917Z,20.73
2023-02-08T11:44:50.401Z,21.70
2023-02-08T11:47:21.513Z,22.10
2023-02-08T11:49:55.401Z,22.53
2023-02-08T11:52:25.546Z,23.00
2023-02-08T11:54:54.175Z,21.13
2023-02-08T11:57:23.981Z,22.50
2023-02-08T11:59:53.776Z,20.40
2023-02-08T12:02:30.438Z,20.63
2023-02-08T12:05:00.157Z,20.80
2023-02-08T12:07:36.877Z,18.50
2023-02-08T12:10:32.039Z,21.57
2023-02-08T12:13:19.159Z,19.10
2023-02-08T12:15:58.916Z,18.70
2023-02-08T12:18:41.220Z,17.80
2023-02-08T12:21:14.430Z,17.63
2023-02-08T12:23:57.797Z,17.50
2023-02-08T12:26:48.706Z,19.23
2023-02-08T12:29:45.686Z,17.30
2023-02-08T12:32:34.218Z,17.50
2023-02-08T12:35:15.622Z,17.57
2023-02-08T12:38:03.873Z,18.30
2023-02-08T12:40:54.136Z,18.20
2023-02-08T12:43:35.393Z,18.60
2023-02-08T12:46:18.275Z,17.70
2023-02-08T12:49:09.587Z,18.27
2023-02-08T12:51:45.638Z,16.63
2023-02-08T12:54:16.556Z,18.40
2023-02-08T12:56:56.920Z,17.33
2023-02-08T12:59:34.322Z,18.40
2023-02-08T13:02:05.580Z,16.10
2023-02-08T13:04:38.407Z,17.10
2023-02-08T13:07:14.257Z,16.40
2023-02-08T13:09:47.147Z,16.37
2023-02-08T13:12:19.047Z,18.03
2023-02-08T13:14:48.856Z,15.37
2023-02-08T13:17:21.717Z,14.80
2023-02-08T13:20:00.087Z,15.67
2023-02-08T13:22:28.903Z,17.00
2023-02-08T13:25:07.089Z,14.30
2023-02-08T13:27:35.882Z,16.90
2023-02-08T13:30:05.679Z,15.27
2023-02-08T13:32:38.074Z,13.07
2023-02-08T13:35:12.778Z,14.00
2023-02-08T13:37:40.891Z,13.40
2023-02-08T13:40:21.540Z,13.83
2023-02-08T13:42:51.615Z,12.80
2023-02-08T13:45:25.624Z,13.83
2023-02-08T13:47:58.984Z,13.30
2023-02-08T13:50:44.803Z,14.40
2023-02-08T13:53:14.008Z,11.97
2023-02-08T13:56:01.790Z,13.00
2023-02-08T13:58:58.693Z,12.47
2023-02-08T14:01:28.901Z,11.80
2023-02-08T14:04:18.436Z,11.10
2023-02-08T14:06:49.228Z,13.00
2023-02-08T14:09:23.319Z,11.50
2023-02-08T14:11:55.882Z,12.27
2023-02-08T14:14:25.648Z,11.30
2023-02-08T14:17:12.405Z,11.17
2023-02-08T14:19:42.068Z,12.37
2023-02-08T14:22:18.285Z,13.63
2023-02-08T14:24:49.526Z,11.90
2023-02-08T14:27:25.229Z,12.00
2023-02-08T14:29:58.281Z,13.00
2023-02-08T14:32:26.938Z,12.97
2023-02-08T14:35:01.723Z,11.87
2023-02-08T14:37:31.169Z,12.03
2023-02-08T14:40:35.091Z,13.87
2023-02-08T14:43:06.085Z,11.93
2023-02-08T14:45:36.164Z,13.13
2023-02-08T14:48:07.849Z,13.53
2023-02-08T14:50:38.546Z,12.17
2023-02-08T14:53:16.138Z,11.80
2023-02-08T14:55:48.621Z,12.33
2023-02-08T14:58:25.446Z,13.63
2023-02-08T15:00:55.532Z,14.03
2023-02-08T15:03:23.603Z,13.27
2023-02-08T15:06:16.736Z,13.77
2023-02-08T15:08:50.557Z,12.90
2023-02-08T15:11:22.440Z,13.60
2023-02-08T15:13:52.362Z,13.70
2023-02-08T15:16:20.627Z,14.50
2023-02-08T15:18:49.847Z,13.17
2023-02-08T15:21:18.900Z,15.10
2023-02-08T15:23:59.446Z,12.77
2023-02-08T15:26:27.608Z,13.00
2023-02-08T15:28:59.357Z,13.23
2023-02-08T15:31:30.913Z,13.83
2023-02-08T15:33:59.517Z,13.30
2023-02-08T15:36:29.922Z,15.03
2023-02-08T15:38:59.371Z,12.80
2023-02-08T15:41:29.622Z,14.33
2023-02-08T15:44:15.900Z,14.90
2023-02-08T15:46:44.107Z,13.60
2023-02-08T15:49:15.020Z,15.70
2023-02-08T15:51:42.713Z,14.10
2023-02-08T15:54:17.248Z,14.43
2023-02-08T15:56:49.507Z,14.63
2023-02-08T15:59:22.594Z,15.53
2023-02-08T16:01:50.717Z,15.30
2023-02-08T16:04:18.626Z,14.53
2023-02-08T16:06:50.035Z,14.47
2023-02-08T16:09:19.287Z,14.80
2023-02-08T16:11:49.197Z,14.13
2023-02-08T16:14:24.198Z,14.70
2023-02-08T16:16:55.811Z,14.90
2023-02-08T16:19:26.373Z,14.00
2023-02-08T16:21:54.945Z,15.30
2023-02-08T16:24:25.331Z,12.43
2023-02-08T16:26:57.681Z,15.10
2023-02-08T16:29:28.616Z,12.77
2023-02-08T16:32:03.680Z,16.53
2023-02-08T16:34:34.066Z,14.60
2023-02-08T16:37:02.506Z,15.10
2023-02-08T16:39:42.304Z,16.50
2023-02-08T16:42:22.709Z,14.03
2023-02-08T16:45:06.597Z,15.97
2023-02-08T16:47:40.166Z,18.10
2023-02-08T16:50:10.434Z,14.63
2023-02-08T16:52:38.200Z,15.70
2023-02-08T16:55:06.727Z,14.60
2023-02-08T16:57:52.674Z,15.60
2023-02-08T17:00:24.569Z,16.20
2023-02-08T17:02:52.853Z,16.20
2023-02-08T17:05:21.602Z,15.27
2023-02-08T17:07:49.676Z,16.90
2023-02-08T17:10:25.733Z,14.07
2023-02-08T17:13:06.842Z,16.27
2023-02-08T17:15:44.495Z,15.50
2023-02-08T17:18:13.124Z,16.00
2023-02-08T17:20:41.021Z,14.90
2023-02-08T17:23:08.708Z,14.93
2023-02-08T17:25:36.590Z,16.63
2023-02-08T17:28:06.831Z,14.57
2023-02-08T17:30:36.945Z,16.73
2023-02-08T17:33:07.599Z,15.53
2023-02-08T17:35:37.596Z,15.77
2023-02-08T17:38:06.448Z,16.90
2023-02-08T17:40:36.684Z,14.67
2023-02-08T17:43:05.320Z,16.97
2023-02-08T17:45:33.528Z,15.20
2023-02-08T17:48:01.691Z,17.17
2023-02-08T17:50:30.680Z,18.90
2023-02-08T17:52:58.342Z,19.10
2023-02-08T17:55:26.055Z,20.17
2023-02-08T17:57:53.936Z,20.37
2023-02-08T18:00:23.714Z,18.63
2023-02-08T18:02:53.664Z,22.77
2023-02-08T18:05:25.295Z,20.73
2023-02-08T18:07:55.937Z,23.50
2023-02-08T18:10:24.479Z,17.20
2023-02-08T18:12:52.192Z,22.00
2023-02-08T18:15:21.294Z,26.27
2023-02-08T18:17:50.274Z,20.97
2023-02-08T18:20:18.647Z,23.50
2023-02-08T18:22:46.478Z,21.70
2023-02-08T18:25:16.224Z,20.93
2023-02-08T18:27:44.085Z,23.10
2023-02-08T18:30:12.885Z,22.67
2023-02-08T18:32:40.557Z,22.47
2023-02-08T18:35:09.168Z,23.47
2023-02-08T18:37:37.340Z,23.20
2023-02-08T18:40:06.159Z,24.90
2023-02-08T18:42:36.307Z,22.60
2023-02-08T18:45:04.754Z,22.70
2023-02-08T18:47:32.547Z,23.80
2023-02-08T18:50:00.153Z,23.50
2023-02-08T18:52:28.298Z,23.60
2023-02-08T18:54:56.496Z,23.10
2023-02-08T18:57:24.132Z,24.10
2023-02-08T18:59:54.240Z,24.20
2023-02-08T19:02:24.254Z,23.23
2023-02-08T19:04:52.002Z,25.70
2023-02-08T19:07:19.836Z,25.70
2023-02-08T19:09:47.427Z,24.07
2023-02-08T19:12:15.851Z,25.17
2023-02-08T19:14:44.032Z,21.67
2023-02-08T19:17:14.842Z,25.83
2023-02-08T19:19:42.830Z,24.70
2023-02-08T19:22:10.817Z,33.00
2023-02-08T19:24:38.776Z,24.23
2023-02-08T19:27:06.476Z,27.37
2023-02-08T19:29:34.527Z,24.90
2023-02-08T19:32:02.213Z,24.40
2023-02-08T19:34:31.210Z,26.00
2023-02-08T19:36:58.802Z,26.97
2023-02-08T19:39:27.980Z,23.77
2023-02-08T19:41:58.487Z,25.57
2023-02-08T19:44:29.091Z,25.73
2023-02-08T19:46:57.976Z,26.33
2023-02-08T19:49:27.280Z,25.77
2023-02-08T19:51:56.854Z,26.60
2023-02-08T19:54:24.750Z,25.40
2023-02-08T19:56:54.624Z,27.00
2023-02-08T19:59:24.441Z,25.07
2023-02-08T20:01:52.636Z,24.90
2023-02-08T20:04:20.489Z,26.70
2023-02-08T20:06:52.059Z,26.50
2023-02-08T20:09:21.305Z,27.93
2023-02-08T20:11:56.727Z,26.37
2023-02-08T20:14:25.066Z,26.93
2023-02-08T20:16:52.780Z,27.27
2023-02-08T20:19:20.452Z,27.77
2023-02-08T20:21:48.077Z,26.27
2023-02-08T20:24:16.076Z,27.87
2023-02-08T20:26:46.821Z,27.73
2023-02-08T20:29:14.619Z,26.23
2023-02-08T20:31:46.661Z,25.27
2023-02-08T20:34:16.382Z,27.83
2023-02-08T20:36:57.484Z,27.17
2023-02-08T20:39:32.762Z,27.00
2023-02-08T20:42:01.807Z,25.40
2023-02-08T20:44:29.565Z,27.13
2023-02-08T20:46:57.230Z,26.70
2023-02-08T20:49:26.448Z,26.60
2023-02-08T20:51:54.780Z,24.73
2023-02-08T20:54:24.398Z,25.40
2023-02-08T20:56:52.768Z,26.00
2023-02-08T20:59:22.212Z,26.77
2023-02-08T21:01:50.406Z,29.40
2023-02-08T21:04:20.224Z,28.30
2023-02-08T21:06:48.048Z,28.07
2023-02-08T21:09:17.413Z,29.03
2023-02-08T21:11:47.212Z,27.47
2023-02-08T21:14:18.854Z,28.20
2023-02-08T21:16:48.962Z,28.53
2023-02-08T21:19:17.293Z,26.53
2023-02-08T21:21:45.075Z,29.20
2023-02-08T21:24:12.782Z,29.70
2023-02-08T21:26:40.394Z,28.57
2023-02-08T21:29:08.386Z,28.00
2023-02-08T21:31:37.378Z,27.43
2023-02-08T21:34:07.105Z,28.07
2023-02-08T21:36:35.094Z,30.13
2023-02-08T21:39:02.749Z,31.00
2023-02-08T21:41:31.955Z,29.97
2023-02-08T21:44:02.255Z,26.73
2023-02-08T21:46:30.403Z,30.20
2023-02-08T21:49:16.391Z,31.37
2023-02-08T21:52:03.657Z,32.10
2023-02-08T21:54:44.371Z,29.60
2023-02-08T21:57:16.423Z,28.87
2023-02-08T21:59:44.418Z,28.60
2023-02-08T22:02:15.434Z,30.50
2023-02-08T22:05:00.841Z,29.97
2023-02-08T22:07:30.272Z,27.40
2023-02-08T22:09:57.889Z,33.03
2023-02-08T22:12:25.587Z,30.37
2023-02-08T22:14:53.240Z,30.43
2023-02-08T22:17:20.905Z,27.80
2023-02-08T22:19:48.618Z,31.57
2023-02-08T22:22:16.278Z,28.10
2023-02-08T22:24:45.313Z,28.60
2023-02-08T22:27:13.184Z,27.60
2023-02-08T22:29:40.919Z,30.87
2023-02-08T22:32:09.931Z,30.67
2023-02-08T22:34:38.220Z,31.43
2023-02-08T22:37:06.160Z,31.50
2023-02-08T22:39:34.206Z,30.20
2023-02-08T22:42:07.956Z,33.30
2023-02-08T22:44:35.930Z,31.63
2023-02-08T22:47:03.912Z,32.63
2023-02-08T22:49:31.583Z,30.40
2023-02-08T22:51:59.513Z,31.97
2023-02-08T22:54:27.311Z,29.50
2023-02-08T22:56:55.440Z,35.00
2023-02-08T22:59:24.466Z,31.50
2023-02-08T23:01:52.278Z,32.43
2023-02-08T23:04:20.023Z,29.87
2023-02-08T23:06:48.068Z,29.60
2023-02-08T23:09:15.733Z,33.70
2023-02-08T23:11:43.513Z,32.90
2023-02-08T23:14:11.250Z,32.00
2023-02-08T23:16:40.533Z,31.77
2023-02-08T23:19:08.298Z,32.70
2023-02-08T23:21:37.550Z,32.73
2023-02-08T23:24:07.048Z,32.30
2023-02-08T23:26:35.077Z,32.17
2023-02-08T23:29:02.807Z,31.73
2023-02-08T23:31:30.613Z,31.50
2023-02-08T23:34:01.182Z,32.53
2023-02-08T23:36:29.666Z,34.07
2023-02-08T23:39:05.186Z,33.77
2023-02-08T23:41:36.168Z,35.17
2023-02-08T23:44:03.804Z,32.90
2023-02-08T23:46:32.128Z,32.40
2023-02-08T23:49:01.160Z,34.57
2023-02-08T23:51:29.211Z,34.70
2023-02-08T23:53:56.976Z,35.83
2023-02-08T23:56:26.726Z,35.67
2023-02-08T23:58:56.232Z,32.70
